Time;durP1;ratioP1;P1;durP2;ratioP2;P2;SDS_P1;SDS_P2;PMS_P1;PMS_P2;Temp;Humidity;BMP_temperature;BMP_pressure;BME280_temperature;BME280_humidity;BME280_pressure;Samples;Min_cycle;Max_cycle;Signal;HPM_P1;HPM_P2
2021/12/12 00:00:34;;;;;;;8.20;4.22;;;16.30;73.10;;;;;;1981029;29;20615;-69
2021/12/12 00:01:37;;;;;;;8.00;4.65;;;16.30;73.20;;;;;;1981023;28;20152;-69
2021/12/12 00:02:56;;;;;;;7.65;4.00;;;16.20;72.80;;;;;;1981080;29;20164;-70
2021/12/12 00:04:07;;;;;;;6.05;3.42;;;16.30;72.90;;;;;;1981100;28;20242;-69
2021/12/12 00:05:09;;;;;;;7.90;4.82;;;16.30;73.10;;;;;;1981313;28;20167;-69
2021/12/12 00:06:38;;;;;;;8.45;4.60;;;16.30;72.80;;;;;;1980757;29;20186;-70
2021/12/12 00:07:39;;;;;;;9.93;4.35;;;16.30;72.70;;;;;;1981106;29;20191;-69
2021/12/12 00:08:41;;;;;;;6.60;4.30;;;16.30;72.80;;;;;;1981239;28;20186;-69
2021/12/12 00:09:44;;;;;;;5.40;3.65;;;16.30;72.80;;;;;;1980835;29;20308;-70
2021/12/12 00:10:46;;;;;;;6.68;4.50;;;16.30;72.90;;;;;;1980546;29;20631;-69
2021/12/12 00:11:45;;;;;;;10.10;4.75;;;16.30;72.70;;;;;;1980418;29;20645;-69
2021/12/12 00:12:48;;;;;;;8.23;4.43;;;16.30;73.10;;;;;;1981117;29;20697;-69
2021/12/12 00:13:58;;;;;;;7.40;4.18;;;16.30;72.90;;;;;;1981000;29;20227;-69
2021/12/12 00:14:57;;;;;;;10.85;4.75;;;16.30;72.60;;;;;;1981179;28;20506;-69
2021/12/12 00:15:56;;;;;;;9.15;3.95;;;16.30;72.70;;;;;;1995807;28;20575;-69
2021/12/12 00:16:55;;;;;;;9.13;4.15;;;16.30;72.60;;;;;;1995904;28;20201;-69
2021/12/12 00:17:54;;;;;;;6.85;3.67;;;16.30;72.70;;;;;;1981459;28;20183;-70
2021/12/12 00:18:53;;;;;;;7.03;4.30;;;16.30;72.80;;;;;;1981532;29;20184;-69
2021/12/12 00:19:52;;;;;;;8.37;4.03;;;16.40;72.80;;;;;;1980660;29;20528;-69
2021/12/12 00:20:52;;;;;;;7.35;4.25;;;16.30;72.60;;;;;;1981760;29;20190;-69
2021/12/12 00:21:55;;;;;;;9.00;4.40;;;16.30;72.90;;;;;;1981977;28;20179;-69
2021/12/12 00:22:58;;;;;;;4.75;3.38;;;16.30;72.90;;;;;;1982509;28;20191;-69
2021/12/12 00:23:58;;;;;;;7.88;3.88;;;16.30;73.10;;;;;;1982713;28;20175;-69
2021/12/12 00:24:57;;;;;;;8.10;4.20;;;16.40;73.00;;;;;;1982473;29;20183;-69
2021/12/12 00:26:02;;;;;;;7.30;3.83;;;16.30;72.90;;;;;;1981733;29;20223;-69
2021/12/12 00:27:02;;;;;;;8.02;3.90;;;16.30;73.00;;;;;;1982046;29;20544;-69
2021/12/12 00:28:01;;;;;;;5.63;3.28;;;16.30;73.30;;;;;;1982353;28;20231;-69
2021/12/12 00:29:00;;;;;;;5.50;3.33;;;16.30;73.30;;;;;;1982273;28;20677;-69
2021/12/12 00:30:03;;;;;;;10.53;4.87;;;16.10;73.20;;;;;;1982144;28;20282;-72
2021/12/12 00:31:09;;;;;;;5.47;3.58;;;16.40;73.40;;;;;;1982205;28;20246;-72
2021/12/12 00:32:12;;;;;;;14.63;5.18;;;16.40;73.10;;;;;;1982220;28;20211;-73
2021/12/12 00:33:11;;;;;;;8.00;4.07;;;16.30;72.90;;;;;;1981662;28;20171;-71
2021/12/12 00:34:10;;;;;;;8.70;4.63;;;16.30;73.10;;;;;;1981731;29;20179;-71
2021/12/12 00:35:14;;;;;;;7.83;4.50;;;16.20;73.20;;;;;;1981202;29;20175;-72
2021/12/12 00:36:17;;;;;;;7.65;4.60;;;16.20;73.10;;;;;;1973962;28;20424;-72
2021/12/12 00:37:17;;;;;;;6.65;3.65;;;16.20;73.10;;;;;;1979359;29;20693;-73
2021/12/12 00:38:25;;;;;;;7.15;3.97;;;16.20;72.90;;;;;;1982188;28;20193;-72
2021/12/12 00:39:28;;;;;;;7.80;4.22;;;16.20;72.90;;;;;;1982133;28;20651;-72
2021/12/12 00:40:37;;;;;;;9.07;4.43;;;16.20;73.10;;;;;;1982330;29;20183;-74
2021/12/12 00:41:44;;;;;;;6.60;3.95;;;16.30;73.30;;;;;;1979933;29;20175;-74
2021/12/12 00:42:46;;;;;;;8.95;4.03;;;16.30;74.20;;;;;;1982111;28;20171;-72
2021/12/12 00:43:50;;;;;;;6.00;3.75;;;16.30;76.10;;;;;;1982247;28;20270;-72
2021/12/12 00:44:53;;;;;;;6.88;4.22;;;16.20;75.80;;;;;;1982127;29;20203;-72
2021/12/12 00:45:54;;;;;;;9.02;4.75;;;16.30;73.30;;;;;;1982218;28;20187;-73
2021/12/12 00:46:56;;;;;;;8.85;5.10;;;16.20;73.60;;;;;;1982274;28;20171;-72
2021/12/12 00:47:56;;;;;;;7.40;4.20;;;16.20;73.90;;;;;;1982217;28;20179;-72
2021/12/12 00:48:55;;;;;;;5.93;4.00;;;16.30;75.80;;;;;;1982260;28;20544;-72
2021/12/12 00:49:54;;;;;;;5.13;3.85;;;16.30;73.70;;;;;;1981441;28;20194;-72
2021/12/12 00:50:53;;;;;;;5.97;4.37;;;16.30;72.40;;;;;;1981676;29;20636;-72
2021/12/12 00:51:56;;;;;;;9.50;4.73;;;16.30;71.40;;;;;;1982198;29;20906;-72
2021/12/12 00:52:57;;;;;;;5.65;4.22;;;16.30;70.60;;;;;;1982132;29;20414;-73
2021/12/12 00:53:57;;;;;;;8.95;4.78;;;16.30;70.60;;;;;;1982395;28;20187;-73
2021/12/12 00:54:55;;;;;;;6.50;4.20;;;16.30;70.40;;;;;;1982271;29;20175;-72
2021/12/12 00:55:57;;;;;;;8.17;3.90;;;16.30;70.30;;;;;;1981695;29;20601;-71
2021/12/12 00:57:02;;;;;;;7.82;4.75;;;16.30;70.30;;;;;;1981649;29;20175;-73
2021/12/12 00:58:00;;;;;;;10.82;4.75;;;16.30;69.90;;;;;;1982485;28;20170;-72
2021/12/12 00:58:59;;;;;;;8.10;4.17;;;16.30;70.00;;;;;;1982378;28;20179;-73
2021/12/12 00:59:59;;;;;;;6.20;4.60;;;16.30;69.90;;;;;;1982431;28;20266;-71
2021/12/12 01:01:12;;;;;;;7.70;5.10;;;16.30;70.10;;;;;;1982245;28;20178;-72
2021/12/12 01:02:21;;;;;;;13.00;5.05;;;16.30;70.20;;;;;;1981557;29;20174;-72
2021/12/12 01:03:26;;;;;;;5.78;3.72;;;16.30;70.20;;;;;;1981610;29;20347;-72
2021/12/12 01:04:34;;;;;;;7.10;4.60;;;16.40;70.20;;;;;;1982262;28;20166;-72
2021/12/12 01:05:33;;;;;;;8.40;4.35;;;16.40;70.20;;;;;;1982211;28;20514;-72
2021/12/12 01:06:33;;;;;;;8.43;4.82;;;16.30;70.10;;;;;;1982139;28;20250;-72
2021/12/12 01:07:35;;;;;;;7.53;4.22;;;16.40;70.20;;;;;;1982176;28;20249;-72
2021/12/12 01:08:36;;;;;;;11.43;4.90;;;16.40;70.30;;;;;;1982119;28;20175;-72
2021/12/12 01:09:42;;;;;;;9.00;4.63;;;16.40;70.30;;;;;;1982139;28;20646;-71
2021/12/12 01:11:20;;;;;;;7.78;4.07;;;16.40;70.40;;;;;;1982105;29;20190;-72
2021/12/12 01:12:26;;;;;;;5.38;4.03;;;16.40;70.30;;;;;;1982381;28;20265;-73
2021/12/12 01:13:25;;;;;;;8.13;4.07;;;16.40;70.40;;;;;;1982212;29;20619;-72
2021/12/12 01:14:30;;;;;;;6.10;4.43;;;16.40;70.40;;;;;;1982231;29;20308;-72
2021/12/12 01:15:37;;;;;;;6.63;3.88;;;16.40;70.30;;;;;;1982261;28;20411;-72
2021/12/12 01:16:45;;;;;;;6.70;4.50;;;16.40;70.10;;;;;;1982064;28;20195;-72
2021/12/12 01:17:47;;;;;;;8.63;4.18;;;16.40;70.30;;;;;;1982093;28;20598;-72
2021/12/12 01:18:52;;;;;;;8.27;4.80;;;16.40;70.40;;;;;;1982074;29;20254;-73
2021/12/12 01:20:00;;;;;;;5.68;3.88;;;16.40;70.30;;;;;;1982000;29;20159;-73
2021/12/12 01:21:10;;;;;;;6.78;4.13;;;16.40;70.20;;;;;;1981932;28;20273;-73
2021/12/12 01:22:19;;;;;;;6.38;4.22;;;16.40;70.40;;;;;;1982357;28;20156;-72
2021/12/12 01:23:26;;;;;;;7.75;4.65;;;16.40;70.60;;;;;;1983119;28;20573;-72
2021/12/12 01:24:46;;;;;;;6.25;4.38;;;16.40;70.60;;;;;;1982642;28;20497;-73
2021/12/12 01:25:48;;;;;;;10.23;5.20;;;16.40;70.60;;;;;;1982524;28;20665;-71
2021/12/12 01:26:47;;;;;;;6.90;4.00;;;16.40;71.30;;;;;;1982631;28;20209;-72
2021/12/12 01:27:46;;;;;;;9.07;4.80;;;16.40;70.60;;;;;;1982776;28;20210;-72
2021/12/12 01:28:49;;;;;;;9.45;4.05;;;16.40;70.60;;;;;;1982559;28;20642;-72
2021/12/12 01:29:49;;;;;;;8.02;4.30;;;16.40;70.60;;;;;;1981191;29;20191;-72
2021/12/12 01:30:49;;;;;;;6.05;4.20;;;16.30;70.70;;;;;;1981126;29;20663;-72
2021/12/12 01:31:49;;;;;;;5.78;4.07;;;16.40;70.50;;;;;;1981459;29;20163;-72
2021/12/12 01:32:49;;;;;;;6.68;3.72;;;16.40;70.50;;;;;;1973756;29;20187;-72
2021/12/12 01:33:56;;;;;;;7.95;4.40;;;16.40;70.60;;;;;;1981662;29;20567;-72
2021/12/12 01:34:57;;;;;;;9.40;4.65;;;16.40;70.70;;;;;;1981757;29;20172;-73
2021/12/12 01:35:56;;;;;;;9.68;4.25;;;16.40;70.60;;;;;;1981924;28;20194;-72
2021/12/12 01:39:24;;;;;;;9.55;4.97;;;16.40;70.80;;;;;;1976465;29;20171;-72
2021/12/12 01:40:26;;;;;;;7.20;4.43;;;16.40;70.70;;;;;;1981370;29;20265;-71
2021/12/12 01:41:50;;;;;;;7.15;3.47;;;16.40;70.70;;;;;;1982040;28;20194;-72
2021/12/12 01:43:25;;;;;;;6.82;4.30;;;16.40;70.80;;;;;;1982227;29;20190;-72
2021/12/12 01:44:35;;;;;;;7.75;4.38;;;16.40;70.80;;;;;;1981360;28;20180;-72
2021/12/12 01:45:42;;;;;;;6.15;3.40;;;16.40;70.90;;;;;;1981502;29;20168;-73
2021/12/12 01:46:50;;;;;;;6.93;3.50;;;16.40;71.10;;;;;;1981773;29;20258;-72
2021/12/12 01:48:00;;;;;;;9.45;4.70;;;16.40;71.00;;;;;;1981928;28;20214;-72
2021/12/12 01:49:07;;;;;;;6.40;4.40;;;16.40;70.90;;;;;;1981817;29;20182;-72
2021/12/12 01:50:15;;;;;;;10.73;4.15;;;16.40;71.00;;;;;;1981946;29;20277;-72
2021/12/12 01:51:15;;;;;;;8.73;4.22;;;16.40;70.90;;;;;;1981935;28;20168;-71
2021/12/12 01:52:17;;;;;;;6.80;4.20;;;16.60;71.40;;;;;;1981184;28;20184;-72
2021/12/12 01:53:20;;;;;;;6.63;4.28;;;16.40;71.20;;;;;;1981308;29;20198;-72
2021/12/12 01:54:25;;;;;;;6.20;4.20;;;16.40;71.20;;;;;;1981206;29;20175;-72
2021/12/12 01:55:31;;;;;;;5.70;4.00;;;16.40;71.20;;;;;;1981435;29;20152;-72
2021/12/12 01:56:42;;;;;;;6.53;4.07;;;16.40;71.00;;;;;;1981784;28;20195;-72
2021/12/12 01:57:40;;;;;;;7.53;4.15;;;16.40;71.20;;;;;;1981912;28;20503;-72
2021/12/12 01:58:43;;;;;;;8.00;4.47;;;16.40;71.20;;;;;;1981968;28;20210;-73
2021/12/12 01:59:46;;;;;;;8.90;5.22;;;16.40;71.20;;;;;;1981661;28;20405;-72
2021/12/12 02:00:54;;;;;;;8.13;4.55;;;16.40;71.20;;;;;;1981832;29;20214;-72
2021/12/12 02:02:06;;;;;;;6.45;4.18;;;16.40;71.10;;;;;;1981718;28;20155;-72
2021/12/12 02:03:08;;;;;;;6.68;4.40;;;16.40;71.30;;;;;;1981824;28;20193;-73
2021/12/12 02:04:15;;;;;;;6.40;4.20;;;16.40;71.30;;;;;;1981825;29;20631;-72
2021/12/12 02:05:17;;;;;;;6.97;4.10;;;16.40;71.40;;;;;;1981859;28;20171;-72
2021/12/12 02:06:18;;;;;;;6.70;4.30;;;16.40;71.30;;;;;;1981757;28;20227;-72
2021/12/12 02:07:24;;;;;;;6.50;4.18;;;16.40;71.30;;;;;;1981982;28;20183;-72
2021/12/12 02:08:23;;;;;;;7.88;4.50;;;16.40;71.30;;;;;;1981657;28;20209;-71
2021/12/12 02:09:23;;;;;;;7.38;4.57;;;16.40;71.50;;;;;;1981713;28;20687;-71
2021/12/12 02:10:27;;;;;;;5.85;4.22;;;16.40;71.40;;;;;;1981739;28;20198;-73
2021/12/12 02:11:30;;;;;;;6.63;4.20;;;16.40;71.50;;;;;;1981860;28;20159;-72
2021/12/12 02:12:29;;;;;;;6.85;4.10;;;16.40;71.40;;;;;;1982020;29;20148;-71
2021/12/12 02:13:32;;;;;;;9.60;3.67;;;16.40;71.50;;;;;;1981681;29;20171;-72
2021/12/12 02:14:34;;;;;;;7.35;4.38;;;16.40;71.40;;;;;;1982007;28;20228;-72
2021/12/12 02:15:35;;;;;;;7.80;4.30;;;16.40;71.50;;;;;;1981124;29;20175;-72
2021/12/12 02:16:39;;;;;;;7.68;4.65;;;16.30;71.30;;;;;;1981180;29;20230;-72
2021/12/12 02:17:44;;;;;;;8.45;4.25;;;16.40;71.70;;;;;;1981885;29;20162;-71
2021/12/12 02:18:48;;;;;;;9.20;4.90;;;16.30;71.50;;;;;;1981989;29;20177;-71
2021/12/12 02:20:12;;;;;;;7.40;4.68;;;16.40;71.80;;;;;;1981263;28;20179;-71
2021/12/12 02:21:31;;;;;;;7.20;4.30;;;16.30;71.70;;;;;;1981469;28;20155;-70
2021/12/12 02:22:50;;;;;;;6.65;3.30;;;16.30;71.80;;;;;;1981982;28;20162;-72
2021/12/12 02:36:09;;;;;;;6.20;3.88;;;16.30;74.80;;;;;;1983560;29;20171;-71
2021/12/12 02:37:10;;;;;;;5.15;3.63;;;16.00;75.10;;;;;;1983774;29;20162;-73
2021/12/12 02:38:11;;;;;;;7.32;3.45;;;16.30;73.00;;;;;;1984097;29;20182;-72
2021/12/12 02:39:15;;;;;;;6.70;4.00;;;16.30;71.80;;;;;;1983569;28;20206;-72
2021/12/12 02:40:29;;;;;;;6.13;4.53;;;16.30;71.50;;;;;;1983017;28;20168;-72
2021/12/12 02:41:28;;;;;;;8.02;3.38;;;16.30;71.10;;;;;;1983523;29;20174;-72
2021/12/12 02:42:27;;;;;;;4.17;3.60;;;16.30;70.80;;;;;;1984061;28;20194;-73
2021/12/12 02:43:29;;;;;;;6.03;3.75;;;16.30;70.90;;;;;;1983753;29;20179;-73
2021/12/12 02:44:31;;;;;;;9.43;4.57;;;16.30;70.70;;;;;;1983591;29;20245;-72
2021/12/12 02:45:32;;;;;;;6.05;4.13;;;16.30;70.70;;;;;;1983994;28;20168;-72
2021/12/12 02:46:34;;;;;;;6.63;4.20;;;16.30;70.80;;;;;;1982900;29;20206;-72
2021/12/12 02:47:34;;;;;;;5.90;3.95;;;16.30;70.80;;;;;;1983303;29;20175;-72
2021/12/12 02:48:39;;;;;;;6.50;4.03;;;16.30;70.60;;;;;;1983969;28;20226;-72
2021/12/12 02:49:54;;;;;;;9.43;4.45;;;16.30;70.60;;;;;;1983500;28;20163;-72
2021/12/12 02:50:54;;;;;;;6.63;4.50;;;16.30;70.60;;;;;;1983999;28;20552;-71
2021/12/12 02:51:53;;;;;;;7.00;4.72;;;16.30;70.70;;;;;;1981668;29;20175;-71
2021/12/12 02:52:58;;;;;;;5.80;3.73;;;16.30;70.70;;;;;;1981607;29;20607;-72
2021/12/12 02:53:58;;;;;;;6.38;3.72;;;16.30;70.80;;;;;;1982666;29;20391;-72
2021/12/12 02:55:00;;;;;;;4.80;3.58;;;16.30;70.90;;;;;;1984136;28;20190;-72
2021/12/12 02:56:13;;;;;;;6.75;3.95;;;16.30;71.70;;;;;;1984214;28;20209;-71
2021/12/12 02:57:15;;;;;;;6.65;4.18;;;16.30;70.80;;;;;;1984025;28;20171;-72
2021/12/12 02:58:20;;;;;;;5.35;4.15;;;16.30;70.90;;;;;;1984224;28;20175;-72
2021/12/12 02:59:23;;;;;;;5.75;3.60;;;16.30;71.00;;;;;;1984248;28;20557;-71
2021/12/12 03:00:24;;;;;;;5.68;3.88;;;16.30;70.80;;;;;;1984364;28;20194;-72
2021/12/12 03:01:29;;;;;;;8.48;4.63;;;16.30;70.90;;;;;;1983330;29;20218;-72
2021/12/12 03:02:31;;;;;;;7.22;3.40;;;16.30;71.00;;;;;;1983284;29;20171;-72
2021/12/12 03:03:35;;;;;;;7.43;4.65;;;16.20;71.10;;;;;;1985441;28;20186;-72
2021/12/12 03:04:36;;;;;;;9.52;4.32;;;16.20;71.00;;;;;;1989667;28;20674;-70
2021/12/12 03:05:44;;;;;;;7.28;4.80;;;16.30;71.10;;;;;;1989779;28;20175;-71
2021/12/12 03:06:45;;;;;;;8.23;3.90;;;16.20;71.10;;;;;;1988846;29;20245;-72
2021/12/12 03:07:47;;;;;;;6.95;4.10;;;16.20;71.30;;;;;;1990056;29;20160;-71
2021/12/12 03:08:50;;;;;;;10.15;4.72;;;16.20;71.20;;;;;;1990010;28;20162;-71
2021/12/12 03:09:55;;;;;;;9.07;4.63;;;16.20;71.30;;;;;;1988723;28;20171;-72
2021/12/12 03:10:55;;;;;;;8.50;4.57;;;16.30;71.40;;;;;;1990311;28;20170;-71
2021/12/12 03:12:01;;;;;;;6.95;4.15;;;16.30;71.30;;;;;;1988038;29;20238;-71
2021/12/12 03:13:00;;;;;;;5.45;3.72;;;16.20;71.40;;;;;;1987236;29;20160;-72
2021/12/12 03:13:59;;;;;;;5.45;3.72;;;16.20;71.60;;;;;;1990415;28;20171;-70
2021/12/12 03:15:03;;;;;;;5.40;3.80;;;16.20;71.40;;;;;;1990439;28;20235;-70
2021/12/12 03:16:02;;;;;;;6.75;4.10;;;16.20;71.70;;;;;;1990945;28;20686;-70
2021/12/12 03:17:06;;;;;;;7.18;4.05;;;16.20;71.70;;;;;;1989504;28;20184;-72
2021/12/12 03:18:11;;;;;;;6.38;3.80;;;16.20;71.90;;;;;;1989383;29;20159;-72
2021/12/12 03:19:10;;;;;;;6.95;3.88;;;16.20;71.90;;;;;;1989505;28;20171;-70
2021/12/12 03:20:23;;;;;;;6.30;3.83;;;16.20;71.80;;;;;;1989101;29;20175;-72
2021/12/12 03:21:30;;;;;;;5.15;3.70;;;16.20;71.90;;;;;;1989439;29;20175;-72
2021/12/12 03:22:29;;;;;;;6.07;3.97;;;16.20;72.20;;;;;;1989373;28;20187;-73
2021/12/12 03:23:35;;;;;;;8.25;4.80;;;16.20;72.30;;;;;;1989311;29;20166;-71
2021/12/12 03:24:33;;;;;;;7.03;3.97;;;16.20;72.50;;;;;;1980630;29;20180;-72
2021/12/12 03:25:36;;;;;;;5.93;4.10;;;16.20;72.60;;;;;;1980524;29;20168;-72
2021/12/12 03:26:36;;;;;;;7.53;4.43;;;16.20;73.20;;;;;;1990040;28;20203;-70
2021/12/12 03:27:38;;;;;;;7.03;3.75;;;16.10;73.80;;;;;;1990252;29;20274;-71
2021/12/12 03:28:40;;;;;;;6.45;4.22;;;16.20;75.80;;;;;;1990804;29;20162;-71
2021/12/12 03:29:40;;;;;;;6.25;3.53;;;16.20;76.90;;;;;;1990788;29;20183;-70
2021/12/12 03:30:41;;;;;;;9.73;4.25;;;16.20;77.10;;;;;;1990894;28;20205;-70
2021/12/12 03:31:46;;;;;;;6.47;4.20;;;16.20;76.00;;;;;;1990800;29;20175;-70
2021/12/12 03:32:45;;;;;;;6.43;4.07;;;16.20;77.60;;;;;;1990875;29;20152;-70
2021/12/12 03:33:44;;;;;;;5.10;3.43;;;16.10;78.40;;;;;;1991009;28;20239;-71
2021/12/12 03:34:50;;;;;;;6.45;3.65;;;16.20;79.10;;;;;;1990754;29;20190;-70
2021/12/12 03:35:53;;;;;;;5.00;4.10;;;16.20;82.70;;;;;;1991051;28;20156;-69
2021/12/12 03:36:52;;;;;;;6.03;4.15;;;16.10;73.90;;;;;;1990808;29;20203;-71
2021/12/12 03:37:51;;;;;;;10.60;5.10;;;16.20;73.80;;;;;;1990931;28;20195;-70
2021/12/12 03:38:55;;;;;;;7.17;4.63;;;16.10;74.90;;;;;;1990472;29;20461;-70
2021/12/12 03:39:56;;;;;;;7.10;4.65;;;16.20;80.00;;;;;;1990683;29;20414;-71
2021/12/12 03:41:00;;;;;;;5.85;4.18;;;16.10;79.60;;;;;;1990954;29;20206;-69
2021/12/12 03:42:02;;;;;;;5.75;3.95;;;16.10;80.30;;;;;;1990878;28;20156;-70
2021/12/12 03:43:05;;;;;;;7.20;4.82;;;16.10;76.20;;;;;;1990812;28;20187;-69
2021/12/12 03:44:07;;;;;;;6.95;4.10;;;16.20;77.10;;;;;;1990709;28;20199;-70
2021/12/12 03:45:07;;;;;;;6.55;4.07;;;16.10;77.70;;;;;;1990757;28;20199;-69
2021/12/12 03:46:10;;;;;;;5.68;3.80;;;16.10;77.70;;;;;;1988196;28;20226;-71
2021/12/12 03:47:17;;;;;;;6.85;3.42;;;16.10;76.90;;;;;;1988307;28;20174;-72
2021/12/12 03:48:26;;;;;;;6.60;3.75;;;16.10;76.10;;;;;;1990739;28;20172;-70
2021/12/12 03:49:25;;;;;;;6.90;3.97;;;16.10;75.60;;;;;;1990462;28;20167;-70
2021/12/12 03:50:29;;;;;;;5.40;3.80;;;16.10;74.80;;;;;;1990856;28;20191;-69
2021/12/12 03:51:29;;;;;;;6.15;3.60;;;16.10;73.90;;;;;;1990593;28;20211;-70
2021/12/12 03:52:28;;;;;;;7.00;3.72;;;16.10;74.30;;;;;;1990979;28;20187;-69
2021/12/12 03:53:29;;;;;;;4.57;3.92;;;16.10;74.40;;;;;;1992051;28;20175;-69
2021/12/12 03:54:28;;;;;;;7.28;4.13;;;16.10;75.40;;;;;;1991668;29;20167;-72
2021/12/12 03:55:28;;;;;;;9.13;4.20;;;16.10;76.20;;;;;;1991827;28;20186;-71
2021/12/12 03:56:27;;;;;;;8.30;3.72;;;16.10;76.20;;;;;;1992146;29;20424;-69
2021/12/12 03:57:28;;;;;;;5.15;3.53;;;16.10;77.10;;;;;;1992096;29;20218;-70
2021/12/12 03:58:27;;;;;;;6.97;4.10;;;16.10;76.10;;;;;;1991861;28;20254;-72
2021/12/12 03:59:27;;;;;;;5.93;3.45;;;16.10;74.40;;;;;;1991456;29;20190;-71
2021/12/12 04:00:35;;;;;;;8.25;4.70;;;16.10;74.30;;;;;;1991253;29;20170;-71
2021/12/12 04:01:39;;;;;;;4.38;3.00;;;16.10;74.10;;;;;;1990873;28;20186;-72
2021/12/12 04:02:39;;;;;;;6.28;3.65;;;16.10;73.90;;;;;;1991033;28;20223;-71
2021/12/12 04:03:39;;;;;;;6.85;3.55;;;16.10;74.10;;;;;;1990770;29;20207;-71
2021/12/12 04:04:41;;;;;;;9.13;4.97;;;16.10;74.40;;;;;;1990666;29;20295;-72
2021/12/12 04:05:51;;;;;;;4.32;3.40;;;16.10;74.80;;;;;;1991452;28;20181;-70
2021/12/12 04:06:52;;;;;;;7.80;3.40;;;16.10;75.70;;;;;;1991700;29;20351;-72
2021/12/12 04:07:51;;;;;;;6.25;3.65;;;16.10;78.40;;;;;;1991594;29;20196;-71
2021/12/12 04:08:52;;;;;;;7.67;4.47;;;16.10;78.70;;;;;;1991924;28;20226;-70
2021/12/12 04:09:52;;;;;;;6.13;3.65;;;16.10;77.50;;;;;;1991845;28;20394;-70
2021/12/12 04:10:51;;;;;;;7.68;3.60;;;16.10;77.90;;;;;;1992065;28;20171;-69
2021/12/12 04:11:53;;;;;;;8.60;4.63;;;16.00;76.40;;;;;;1991888;29;20179;-70
2021/12/12 04:12:53;;;;;;;8.13;4.72;;;16.00;75.40;;;;;;1992022;28;20170;-70
2021/12/12 04:13:54;;;;;;;7.22;4.43;;;16.00;75.50;;;;;;1992040;29;20167;-69
2021/12/12 04:14:54;;;;;;;6.53;3.47;;;16.00;77.50;;;;;;1991673;29;20184;-70
2021/12/12 04:15:55;;;;;;;3.65;2.95;;;16.00;76.60;;;;;;1991022;28;20222;-69
2021/12/12 04:16:57;;;;;;;8.35;4.35;;;16.00;76.80;;;;;;1991877;29;20174;-70
2021/12/12 04:17:56;;;;;;;6.15;4.25;;;16.00;76.00;;;;;;1992041;29;20197;-70
2021/12/12 04:18:55;;;;;;;5.60;3.37;;;16.00;76.00;;;;;;1992247;28;20182;-70
2021/12/12 04:19:58;;;;;;;6.30;3.85;;;16.00;76.70;;;;;;1991900;28;20442;-71
2021/12/12 04:20:58;;;;;;;6.55;3.67;;;16.00;77.40;;;;;;1991747;29;20163;-72
2021/12/12 04:22:02;;;;;;;6.95;3.83;;;16.00;77.30;;;;;;1991716;28;20175;-70
2021/12/12 04:23:01;;;;;;;6.57;3.75;;;16.00;76.60;;;;;;1991518;29;20187;-71
2021/12/12 04:24:03;;;;;;;7.93;4.47;;;16.00;76.60;;;;;;1991729;29;20187;-71
2021/12/12 04:25:01;;;;;;;6.53;4.20;;;16.00;77.70;;;;;;1991848;28;20178;-71
2021/12/12 04:26:22;;;;;;;6.00;3.63;;;16.00;76.50;;;;;;1991680;29;20246;-71
2021/12/12 04:27:22;;;;;;;6.53;4.30;;;16.00;76.80;;;;;;1992121;28;20238;-72
2021/12/12 04:28:20;;;;;;;9.20;4.85;;;15.90;79.70;;;;;;1991638;29;20230;-70
2021/12/12 04:29:25;;;;;;;8.60;4.70;;;16.00;81.30;;;;;;1992072;28;20190;-69
2021/12/12 04:30:26;;;;;;;6.75;4.53;;;16.00;76.40;;;;;;1992117;28;20377;-69
2021/12/12 04:31:25;;;;;;;9.30;4.57;;;17.10;79.30;;;;;;1992046;28;20182;-69
2021/12/12 04:32:26;;;;;;;8.20;3.95;;;16.00;76.50;;;;;;1991742;29;20159;-71
2021/12/12 04:33:25;;;;;;;6.00;3.75;;;16.00;75.70;;;;;;1991807;28;20147;-70
2021/12/12 04:34:31;;;;;;;7.72;4.45;;;16.00;75.40;;;;;;1990619;29;20183;-70
2021/12/12 04:35:29;;;;;;;7.32;4.25;;;16.00;75.00;;;;;;1991659;28;20156;-69
2021/12/12 04:36:33;;;;;;;9.53;4.33;;;16.00;75.00;;;;;;1991619;28;20178;-71
2021/12/12 04:37:33;;;;;;;6.35;3.70;;;16.00;74.90;;;;;;1991545;29;20159;-71
2021/12/12 04:38:31;;;;;;;6.57;4.32;;;15.90;74.90;;;;;;1991150;28;20183;-70
2021/12/12 04:39:35;;;;;;;6.03;4.33;;;15.90;74.80;;;;;;1991208;29;20171;-71
2021/12/12 04:40:37;;;;;;;6.50;4.13;;;15.90;74.90;;;;;;1991766;28;20152;-70
2021/12/12 04:41:36;;;;;;;6.60;3.80;;;15.90;74.90;;;;;;1991666;29;20147;-71
2021/12/12 04:42:37;;;;;;;7.07;4.13;;;15.90;74.90;;;;;;1991853;28;20163;-69
2021/12/12 04:43:40;;;;;;;5.97;3.85;;;15.90;74.90;;;;;;1991459;29;20148;-71
2021/12/12 04:44:41;;;;;;;6.78;4.13;;;15.90;75.10;;;;;;1991359;29;20151;-71
2021/12/12 04:46:21;;;;;;;7.70;4.55;;;15.90;75.30;;;;;;1991770;28;20171;-70
2021/12/12 04:50:21;;;;;;;7.07;4.70;;;15.90;76.00;;;;;;1991399;28;20195;-71
2021/12/12 04:51:21;;;;;;;7.35;3.67;;;15.80;76.40;;;;;;1991666;28;20156;-70
2021/12/12 04:52:40;;;;;;;7.15;4.70;;;15.80;76.60;;;;;;1991687;28;20171;-71
2021/12/12 04:53:46;;;;;;;7.88;4.18;;;15.80;76.80;;;;;;1991671;28;20170;-71
2021/12/12 04:55:12;;;;;;;7.97;4.85;;;15.80;77.30;;;;;;1991850;28;20168;-71
2021/12/12 04:56:19;;;;;;;5.55;4.00;;;15.80;77.90;;;;;;1991709;28;20175;-71
2021/12/12 04:57:29;;;;;;;11.35;4.35;;;15.80;78.50;;;;;;1992025;29;20135;-69
2021/12/12 04:58:30;;;;;;;10.55;4.93;;;15.90;77.20;;;;;;1991540;29;20211;-70
2021/12/12 04:59:36;;;;;;;9.10;3.88;;;15.80;76.50;;;;;;1991774;29;20176;-69
2021/12/12 05:00:45;;;;;;;7.82;4.22;;;15.80;76.00;;;;;;1991748;28;20160;-69
2021/12/12 05:01:57;;;;;;;9.80;4.30;;;15.80;75.50;;;;;;1991689;28;20219;-70
2021/12/12 05:03:16;;;;;;;8.95;5.38;;;15.80;75.30;;;;;;1991723;28;20163;-71
2021/12/12 05:04:30;;;;;;;6.25;4.55;;;15.90;75.40;;;;;;1991391;28;20171;-71
2021/12/12 05:05:46;;;;;;;7.35;4.10;;;15.80;75.10;;;;;;1991658;29;20151;-72
2021/12/12 05:06:53;;;;;;;5.07;3.75;;;15.80;75.10;;;;;;1991727;28;20199;-69
2021/12/12 05:07:59;;;;;;;10.70;5.68;;;15.80;75.10;;;;;;1991783;28;20195;-69
2021/12/12 05:09:22;;;;;;;5.70;3.80;;;15.80;75.00;;;;;;1991733;28;20158;-70
2021/12/12 05:10:39;;;;;;;8.15;4.25;;;15.80;75.30;;;;;;1991250;28;20319;-69
2021/12/12 05:12:06;;;;;;;7.90;4.95;;;15.80;75.90;;;;;;1991400;28;20163;-70
2021/12/12 05:13:33;;;;;;;7.82;4.25;;;15.80;76.70;;;;;;1987791;29;20166;-72
2021/12/12 05:14:37;;;;;;;7.80;4.30;;;15.80;77.30;;;;;;1984910;28;20182;-73
2021/12/12 05:15:39;;;;;;;10.90;4.80;;;15.80;77.40;;;;;;1985303;28;20164;-73
2021/12/12 05:16:40;;;;;;;9.57;4.43;;;15.80;78.50;;;;;;1983908;28;20200;-72
2021/12/12 05:17:43;;;;;;;6.85;3.97;;;15.80;75.80;;;;;;1984046;28;20171;-72
2021/12/12 05:18:49;;;;;;;11.18;4.68;;;15.90;74.20;;;;;;1983418;28;20175;-73
2021/12/12 05:19:56;;;;;;;7.13;4.22;;;16.00;74.60;;;;;;1983957;28;20160;-72
2021/12/12 05:21:00;;;;;;;5.25;3.13;;;15.90;76.50;;;;;;1984833;29;20254;-72
2021/12/12 05:22:07;;;;;;;8.05;4.70;;;15.90;76.10;;;;;;1984144;29;20627;-72
2021/12/12 05:23:11;;;;;;;6.65;4.18;;;15.90;76.80;;;;;;1983899;28;20174;-72
2021/12/12 05:24:12;;;;;;;6.40;3.65;;;15.90;78.40;;;;;;1983340;29;20171;-74
2021/12/12 05:25:17;;;;;;;8.85;4.85;;;16.10;76.30;;;;;;1983470;28;20180;-73
2021/12/12 05:26:26;;;;;;;9.35;4.05;;;15.90;71.90;;;;;;1983174;29;20191;-72
2021/12/12 05:27:28;;;;;;;7.65;4.63;;;15.90;71.50;;;;;;1983132;29;20168;-73
2021/12/12 05:28:38;;;;;;;7.53;4.15;;;16.00;71.40;;;;;;1982198;29;20663;-73
2021/12/12 05:29:58;;;;;;;8.68;4.25;;;16.00;71.30;;;;;;1983056;28;20163;-72
2021/12/12 05:31:00;;;;;;;9.93;4.70;;;15.90;71.20;;;;;;1982702;29;20687;-72
2021/12/12 05:32:06;;;;;;;8.73;4.10;;;15.90;71.50;;;;;;1982958;28;20209;-72
2021/12/12 05:33:06;;;;;;;6.00;4.40;;;15.90;71.40;;;;;;1984477;28;20183;-73
2021/12/12 05:34:05;;;;;;;8.93;4.30;;;15.90;71.60;;;;;;1984779;28;20660;-72
2021/12/12 05:35:08;;;;;;;7.43;4.78;;;15.90;71.90;;;;;;1985141;29;20215;-72
2021/12/12 05:36:09;;;;;;;10.25;4.47;;;15.80;71.90;;;;;;1986713;29;20223;-73
2021/12/12 05:37:11;;;;;;;6.38;3.85;;;15.80;71.90;;;;;;1984553;29;20508;-72
2021/12/12 05:38:11;;;;;;;7.97;4.90;;;15.80;72.20;;;;;;1985162;28;20273;-73
2021/12/12 05:39:10;;;;;;;6.65;3.78;;;15.80;72.40;;;;;;1986490;29;20175;-72
2021/12/12 05:40:10;;;;;;;7.27;4.20;;;15.80;72.60;;;;;;1986735;29;20190;-72
2021/12/12 05:41:10;;;;;;;7.20;4.70;;;15.80;72.70;;;;;;1990169;28;20410;-72
2021/12/12 05:42:09;;;;;;;8.40;4.03;;;15.90;73.00;;;;;;1990159;28;20175;-72
2021/12/12 05:43:14;;;;;;;4.90;3.53;;;15.80;73.20;;;;;;1989308;28;20199;-72
2021/12/12 05:44:12;;;;;;;5.78;3.83;;;15.80;73.80;;;;;;1985672;28;20395;-72
2021/12/12 05:45:15;;;;;;;6.70;4.60;;;15.90;77.80;;;;;;1984971;29;20183;-72
2021/12/12 05:46:18;;;;;;;7.43;4.00;;;15.90;81.50;;;;;;1985021;28;20610;-72
2021/12/12 05:47:17;;;;;;;5.82;4.00;;;15.90;71.40;;;;;;1984909;29;20172;-72
2021/12/12 05:48:16;;;;;;;7.10;4.68;;;15.80;70.60;;;;;;1989023;28;20175;-70
2021/12/12 05:49:15;;;;;;;6.50;3.90;;;15.80;70.30;;;;;;1986340;29;20259;-72
2021/12/12 05:50:15;;;;;;;4.57;3.70;;;15.80;70.10;;;;;;1982380;29;20549;-71